sensor_id;sensor_type;location;lat;lon;timestamp;P1;durP1;ratioP1;P2;durP2;ratioP2
71513;SDS011;59335;46.652;21.272;2023-02-17T00:00:26;32.47;;;22.02;;
71513;SDS011;59335;46.652;21.272;2023-02-17T00:03:30;31.17;;;20.33;;
71513;SDS011;59335;46.652;21.272;2023-02-17T00:06:32;31.70;;;21.50;;
71513;SDS011;59335;46.652;21.272;2023-02-17T00:09:38;30.52;;;21.17;;
71513;SDS011;59335;46.652;21.272;2023-02-17T00:12:42;31.98;;;20.92;;
71513;SDS011;59335;46.652;21.272;2023-02-17T00:15:48;29.23;;;19.58;;
71513;SDS011;59335;46.652;21.272;2023-02-17T00:18:52;30.42;;;21.00;;
71513;SDS011;59335;46.652;21.272;2023-02-17T00:22:00;30.23;;;20.27;;
71513;SDS011;59335;46.652;21.272;2023-02-17T00:25:03;33.67;;;21.10;;
71513;SDS011;59335;46.652;21.272;2023-02-17T00:28:09;32.67;;;21.25;;
71513;SDS011;59335;46.652;21.272;2023-02-17T00:31:15;29.45;;;20.13;;
71513;SDS011;59335;46.652;21.272;2023-02-17T00:34:22;32.42;;;21.45;;
71513;SDS011;59335;46.652;21.272;2023-02-17T00:37:26;29.90;;;21.50;;
71513;SDS011;59335;46.652;21.272;2023-02-17T00:40:29;31.70;;;20.83;;
71513;SDS011;59335;46.652;21.272;2023-02-17T00:43:32;32.40;;;21.20;;
71513;SDS011;59335;46.652;21.272;2023-02-17T00:46:35;29.77;;;21.13;;
71513;SDS011;59335;46.652;21.272;2023-02-17T00:49:38;29.35;;;20.20;;
71513;SDS011;59335;46.652;21.272;2023-02-17T00:52:41;29.57;;;21.27;;
71513;SDS011;59335;46.652;21.272;2023-02-17T00:55:44;29.92;;;20.45;;
71513;SDS011;59335;46.652;21.272;2023-02-17T00:58:46;32.55;;;21.42;;
71513;SDS011;59335;46.652;21.272;2023-02-17T01:01:51;34.40;;;21.25;;
71513;SDS011;59335;46.652;21.272;2023-02-17T01:04:54;32.40;;;21.50;;
71513;SDS011;59335;46.652;21.272;2023-02-17T01:07:57;28.93;;;20.57;;
71513;SDS011;59335;46.652;21.272;2023-02-17T01:11:01;29.15;;;19.77;;
71513;SDS011;59335;46.652;21.272;2023-02-17T01:14:09;30.70;;;20.60;;
71513;SDS011;59335;46.652;21.272;2023-02-17T01:17:14;30.25;;;20.55;;
71513;SDS011;59335;46.652;21.272;2023-02-17T01:20:16;30.17;;;20.80;;
71513;SDS011;59335;46.652;21.272;2023-02-17T01:23:19;29.00;;;19.93;;
71513;SDS011;59335;46.652;21.272;2023-02-17T01:26:23;28.77;;;20.27;;
71513;SDS011;59335;46.652;21.272;2023-02-17T01:29:28;30.55;;;20.95;;
71513;SDS011;59335;46.652;21.272;2023-02-17T01:32:31;29.70;;;20.30;;
71513;SDS011;59335;46.652;21.272;2023-02-17T01:35:34;28.48;;;19.83;;
71513;SDS011;59335;46.652;21.272;2023-02-17T01:38:37;31.00;;;20.93;;
71513;SDS011;59335;46.652;21.272;2023-02-17T01:41:46;30.80;;;20.70;;
71513;SDS011;59335;46.652;21.272;2023-02-17T01:48:22;30.50;;;20.98;;
71513;SDS011;59335;46.652;21.272;2023-02-17T01:51:33;32.40;;;20.98;;
71513;SDS011;59335;46.652;21.272;2023-02-17T01:57:48;28.90;;;20.27;;
71513;SDS011;59335;46.652;21.272;2023-02-17T02:00:55;28.25;;;20.20;;
71513;SDS011;59335;46.652;21.272;2023-02-17T02:04:02;30.17;;;21.13;;
71513;SDS011;59335;46.652;21.272;2023-02-17T02:07:10;29.17;;;21.20;;
71513;SDS011;59335;46.652;21.272;2023-02-17T02:10:18;30.43;;;20.93;;
71513;SDS011;59335;46.652;21.272;2023-02-17T02:13:21;28.90;;;19.52;;
71513;SDS011;59335;46.652;21.272;2023-02-17T02:16:33;32.15;;;21.20;;
71513;SDS011;59335;46.652;21.272;2023-02-17T02:36:26;26.90;;;19.67;;
71513;SDS011;59335;46.652;21.272;2023-02-17T02:39:37;29.60;;;20.50;;
71513;SDS011;59335;46.652;21.272;2023-02-17T02:42:42;29.63;;;20.13;;
71513;SDS011;59335;46.652;21.272;2023-02-17T02:45:47;29.35;;;20.58;;
71513;SDS011;59335;46.652;21.272;2023-02-17T02:48:51;29.65;;;20.92;;
71513;SDS011;59335;46.652;21.272;2023-02-17T02:51:58;27.48;;;20.08;;
71513;SDS011;59335;46.652;21.272;2023-02-17T03:08:19;27.40;;;20.35;;
71513;SDS011;59335;46.652;21.272;2023-02-17T03:11:37;28.85;;;20.70;;
71513;SDS011;59335;46.652;21.272;2023-02-17T03:14:41;30.17;;;20.30;;
71513;SDS011;59335;46.652;21.272;2023-02-17T03:17:44;28.05;;;20.05;;
71513;SDS011;59335;46.652;21.272;2023-02-17T03:20:49;28.88;;;20.30;;
71513;SDS011;59335;46.652;21.272;2023-02-17T03:23:55;28.25;;;20.48;;
71513;SDS011;59335;46.652;21.272;2023-02-17T03:26:58;27.30;;;19.95;;
71513;SDS011;59335;46.652;21.272;2023-02-17T03:30:01;28.87;;;19.33;;
71513;SDS011;59335;46.652;21.272;2023-02-17T03:33:06;28.20;;;20.13;;
71513;SDS011;59335;46.652;21.272;2023-02-17T03:36:09;29.58;;;20.85;;
71513;SDS011;59335;46.652;21.272;2023-02-17T03:39:12;29.88;;;20.58;;
71513;SDS011;59335;46.652;21.272;2023-02-17T03:42:15;28.92;;;20.25;;
71513;SDS011;59335;46.652;21.272;2023-02-17T03:45:18;28.57;;;19.67;;
71513;SDS011;59335;46.652;21.272;2023-02-17T03:48:21;29.27;;;21.52;;
71513;SDS011;59335;46.652;21.272;2023-02-17T03:51:24;28.25;;;20.38;;
71513;SDS011;59335;46.652;21.272;2023-02-17T03:54:27;28.20;;;20.48;;
71513;SDS011;59335;46.652;21.272;2023-02-17T03:57:30;29.17;;;20.55;;
71513;SDS011;59335;46.652;21.272;2023-02-17T04:00:34;29.13;;;20.57;;
71513;SDS011;59335;46.652;21.272;2023-02-17T04:03:38;28.52;;;20.85;;
71513;SDS011;59335;46.652;21.272;2023-02-17T04:06:42;29.23;;;21.38;;
71513;SDS011;59335;46.652;21.272;2023-02-17T04:09:44;30.30;;;20.65;;
71513;SDS011;59335;46.652;21.272;2023-02-17T04:12:47;29.38;;;20.77;;
71513;SDS011;59335;46.652;21.272;2023-02-17T04:15:51;29.83;;;20.63;;
71513;SDS011;59335;46.652;21.272;2023-02-17T04:18:54;29.70;;;20.77;;
71513;SDS011;59335;46.652;21.272;2023-02-17T04:21:57;30.52;;;20.77;;
71513;SDS011;59335;46.652;21.272;2023-02-17T04:25:00;26.38;;;19.25;;
71513;SDS011;59335;46.652;21.272;2023-02-17T04:28:03;29.48;;;19.77;;
71513;SDS011;59335;46.652;21.272;2023-02-17T04:31:07;28.20;;;19.50;;
71513;SDS011;59335;46.652;21.272;2023-02-17T04:34:10;26.95;;;20.25;;
71513;SDS011;59335;46.652;21.272;2023-02-17T04:37:13;26.65;;;19.98;;
71513;SDS011;59335;46.652;21.272;2023-02-17T04:40:16;27.95;;;19.70;;
71513;SDS011;59335;46.652;21.272;2023-02-17T04:43:19;31.83;;;21.77;;
71513;SDS011;59335;46.652;21.272;2023-02-17T04:46:22;27.07;;;19.53;;
71513;SDS011;59335;46.652;21.272;2023-02-17T04:49:25;28.23;;;20.73;;
71513;SDS011;59335;46.652;21.272;2023-02-17T04:52:28;29.02;;;20.33;;
71513;SDS011;59335;46.652;21.272;2023-02-17T04:55:33;28.48;;;19.83;;
71513;SDS011;59335;46.652;21.272;2023-02-17T04:58:36;28.27;;;20.65;;
71513;SDS011;59335;46.652;21.272;2023-02-17T05:01:39;27.43;;;20.30;;
71513;SDS011;59335;46.652;21.272;2023-02-17T05:04:42;28.60;;;20.15;;
71513;SDS011;59335;46.652;21.272;2023-02-17T05:07:47;29.77;;;20.52;;
71513;SDS011;59335;46.652;21.272;2023-02-17T05:10:50;28.00;;;20.35;;
71513;SDS011;59335;46.652;21.272;2023-02-17T05:13:54;27.77;;;19.60;;
71513;SDS011;59335;46.652;21.272;2023-02-17T05:16:59;28.67;;;20.13;;
71513;SDS011;59335;46.652;21.272;2023-02-17T05:20:03;27.67;;;21.30;;
71513;SDS011;59335;46.652;21.272;2023-02-17T05:23:13;28.15;;;20.25;;
71513;SDS011;59335;46.652;21.272;2023-02-17T05:26:16;28.40;;;20.15;;
71513;SDS011;59335;46.652;21.272;2023-02-17T05:29:19;28.35;;;20.80;;
71513;SDS011;59335;46.652;21.272;2023-02-17T05:32:22;28.00;;;20.30;;
71513;SDS011;59335;46.652;21.272;2023-02-17T05:35:25;28.60;;;20.80;;
71513;SDS011;59335;46.652;21.272;2023-02-17T05:38:28;29.02;;;20.50;;
71513;SDS011;59335;46.652;21.272;2023-02-17T05:41:31;29.63;;;20.92;;
71513;SDS011;59335;46.652;21.272;2023-02-17T05:44:34;31.23;;;21.02;;
71513;SDS011;59335;46.652;21.272;2023-02-17T05:47:37;28.30;;;20.37;;
71513;SDS011;59335;46.652;21.272;2023-02-17T05:50:40;28.88;;;20.80;;
71513;SDS011;59335;46.652;21.272;2023-02-17T05:53:43;31.05;;;21.15;;
71513;SDS011;59335;46.652;21.272;2023-02-17T05:56:47;29.33;;;20.95;;
71513;SDS011;59335;46.652;21.272;2023-02-17T05:59:50;28.35;;;19.98;;
71513;SDS011;59335;46.652;21.272;2023-02-17T06:02:53;30.97;;;20.87;;
71513;SDS011;59335;46.652;21.272;2023-02-17T06:05:56;28.90;;;20.48;;
71513;SDS011;59335;46.652;21.272;2023-02-17T06:08:59;29.33;;;20.75;;
71513;SDS011;59335;46.652;21.272;2023-02-17T06:12:05;28.05;;;19.60;;
71513;SDS011;59335;46.652;21.272;2023-02-17T06:15:11;28.60;;;21.27;;
71513;SDS011;59335;46.652;21.272;2023-02-17T06:18:14;28.87;;;21.00;;
71513;SDS011;59335;46.652;21.272;2023-02-17T06:21:17;28.05;;;19.80;;
71513;SDS011;59335;46.652;21.272;2023-02-17T06:24:19;27.67;;;20.92;;
71513;SDS011;59335;46.652;21.272;2023-02-17T06:27:22;29.38;;;20.08;;
71513;SDS011;59335;46.652;21.272;2023-02-17T06:30:25;29.30;;;19.88;;
71513;SDS011;59335;46.652;21.272;2023-02-17T06:33:29;25.87;;;19.30;;
71513;SDS011;59335;46.652;21.272;2023-02-17T06:36:32;27.23;;;19.63;;
71513;SDS011;59335;46.652;21.272;2023-02-17T06:39:35;28.25;;;19.85;;
71513;SDS011;59335;46.652;21.272;2023-02-17T06:42:41;31.95;;;20.88;;
71513;SDS011;59335;46.652;21.272;2023-02-17T06:45:44;33.00;;;23.40;;
71513;SDS011;59335;46.652;21.272;2023-02-17T06:48:50;28.87;;;21.13;;
71513;SDS011;59335;46.652;21.272;2023-02-17T06:51:53;31.05;;;22.05;;
71513;SDS011;59335;46.652;21.272;2023-02-17T06:54:59;31.35;;;20.88;;
71513;SDS011;59335;46.652;21.272;2023-02-17T07:01:25;30.50;;;20.83;;
71513;SDS011;59335;46.652;21.272;2023-02-17T07:04:31;29.43;;;20.17;;
71513;SDS011;59335;46.652;21.272;2023-02-17T07:07:35;27.98;;;19.75;;
71513;SDS011;59335;46.652;21.272;2023-02-17T07:10:37;31.40;;;21.63;;
71513;SDS011;59335;46.652;21.272;2023-02-17T07:13:41;30.08;;;20.65;;
71513;SDS011;59335;46.652;21.272;2023-02-17T07:16:45;29.42;;;20.73;;
71513;SDS011;59335;46.652;21.272;2023-02-17T07:19:48;28.23;;;19.83;;
71513;SDS011;59335;46.652;21.272;2023-02-17T07:22:51;30.42;;;19.80;;
71513;SDS011;59335;46.652;21.272;2023-02-17T07:25:55;29.48;;;19.98;;
71513;SDS011;59335;46.652;21.272;2023-02-17T07:29:03;30.98;;;19.85;;
71513;SDS011;59335;46.652;21.272;2023-02-17T07:32:07;29.33;;;20.75;;
71513;SDS011;59335;46.652;21.272;2023-02-17T07:35:11;32.40;;;20.20;;
71513;SDS011;59335;46.652;21.272;2023-02-17T07:38:16;30.85;;;20.13;;
71513;SDS011;59335;46.652;21.272;2023-02-17T07:41:22;30.08;;;21.25;;
71513;SDS011;59335;46.652;21.272;2023-02-17T07:44:31;29.77;;;19.23;;
71513;SDS011;59335;46.652;21.272;2023-02-17T07:47:34;30.45;;;19.92;;
71513;SDS011;59335;46.652;21.272;2023-02-17T07:50:41;32.10;;;19.40;;
71513;SDS011;59335;46.652;21.272;2023-02-17T07:53:44;27.95;;;19.20;;
71513;SDS011;59335;46.652;21.272;2023-02-17T07:56:47;32.17;;;19.67;;
71513;SDS011;59335;46.652;21.272;2023-02-17T07:59:50;28.92;;;20.17;;
71513;SDS011;59335;46.652;21.272;2023-02-17T08:02:54;33.45;;;20.35;;
71513;SDS011;59335;46.652;21.272;2023-02-17T08:05:57;36.13;;;19.93;;
71513;SDS011;59335;46.652;21.272;2023-02-17T08:09:00;27.65;;;18.83;;
71513;SDS011;59335;46.652;21.272;2023-02-17T08:12:21;31.52;;;20.42;;
71513;SDS011;59335;46.652;21.272;2023-02-17T08:15:43;29.70;;;19.60;;
71513;SDS011;59335;46.652;21.272;2023-02-17T08:18:46;30.98;;;19.92;;
71513;SDS011;59335;46.652;21.272;2023-02-17T08:21:49;28.83;;;19.23;;
71513;SDS011;59335;46.652;21.272;2023-02-17T08:24:52;29.02;;;19.35;;
71513;SDS011;59335;46.652;21.272;2023-02-17T08:27:55;30.42;;;19.75;;
71513;SDS011;59335;46.652;21.272;2023-02-17T08:30:57;30.58;;;19.55;;
71513;SDS011;59335;46.652;21.272;2023-02-17T08:34:03;29.70;;;19.02;;
71513;SDS011;59335;46.652;21.272;2023-02-17T08:37:08;30.00;;;18.70;;
71513;SDS011;59335;46.652;21.272;2023-02-17T08:40:13;29.25;;;18.75;;
71513;SDS011;59335;46.652;21.272;2023-02-17T08:43:16;32.95;;;19.50;;
71513;SDS011;59335;46.652;21.272;2023-02-17T08:46:20;33.38;;;19.35;;
71513;SDS011;59335;46.652;21.272;2023-02-17T08:49:24;29.58;;;19.67;;
71513;SDS011;59335;46.652;21.272;2023-02-17T08:52:29;31.73;;;20.07;;
71513;SDS011;59335;46.652;21.272;2023-02-17T08:55:33;40.53;;;22.63;;
71513;SDS011;59335;46.652;21.272;2023-02-17T08:58:50;47.00;;;25.00;;
71513;SDS011;59335;46.652;21.272;2023-02-17T09:01:54;42.10;;;24.42;;
71513;SDS011;59335;46.652;21.272;2023-02-17T09:05:00;45.55;;;23.88;;
71513;SDS011;59335;46.652;21.272;2023-02-17T09:08:03;43.80;;;24.63;;
71513;SDS011;59335;46.652;21.272;2023-02-17T09:11:10;49.70;;;24.02;;
71513;SDS011;59335;46.652;21.272;2023-02-17T09:14:18;48.03;;;24.92;;
71513;SDS011;59335;46.652;21.272;2023-02-17T09:17:25;41.22;;;23.38;;
71513;SDS011;59335;46.652;21.272;2023-02-17T09:20:28;44.80;;;23.70;;
71513;SDS011;59335;46.652;21.272;2023-02-17T09:23:31;48.47;;;23.97;;
71513;SDS011;59335;46.652;21.272;2023-02-17T09:26:36;43.75;;;24.13;;
71513;SDS011;59335;46.652;21.272;2023-02-17T09:29:42;37.88;;;22.52;;
71513;SDS011;59335;46.652;21.272;2023-02-17T09:32:46;42.15;;;23.02;;
71513;SDS011;59335;46.652;21.272;2023-02-17T09:35:50;41.38;;;23.30;;
71513;SDS011;59335;46.652;21.272;2023-02-17T09:38:57;39.57;;;22.47;;
71513;SDS011;59335;46.652;21.272;2023-02-17T09:42:01;40.60;;;23.40;;
71513;SDS011;59335;46.652;21.272;2023-02-17T09:45:05;42.67;;;21.63;;
71513;SDS011;59335;46.652;21.272;2023-02-17T09:48:15;39.00;;;22.40;;
71513;SDS011;59335;46.652;21.272;2023-02-17T09:55:00;38.27;;;21.60;;
71513;SDS011;59335;46.652;21.272;2023-02-17T10:01:34;33.53;;;21.00;;
71513;SDS011;59335;46.652;21.272;2023-02-17T10:04:39;34.70;;;21.20;;
71513;SDS011;59335;46.652;21.272;2023-02-17T10:08:04;36.95;;;21.48;;
71513;SDS011;59335;46.652;21.272;2023-02-17T10:14:21;35.38;;;20.48;;
71513;SDS011;59335;46.652;21.272;2023-02-17T10:20:48;35.50;;;20.80;;
71513;SDS011;59335;46.652;21.272;2023-02-17T10:28:13;36.33;;;20.47;;
71513;SDS011;59335;46.652;21.272;2023-02-17T10:35:13;37.35;;;21.00;;
71513;SDS011;59335;46.652;21.272;2023-02-17T10:41:45;34.40;;;20.20;;
71513;SDS011;59335;46.652;21.272;2023-02-17T10:44:51;34.23;;;20.03;;
71513;SDS011;59335;46.652;21.272;2023-02-17T10:48:13;33.45;;;19.73;;
71513;SDS011;59335;46.652;21.272;2023-02-17T10:51:27;32.80;;;20.90;;
71513;SDS011;59335;46.652;21.272;2023-02-17T10:54:36;34.03;;;20.30;;
71513;SDS011;59335;46.652;21.272;2023-02-17T10:57:43;36.28;;;20.35;;
71513;SDS011;59335;46.652;21.272;2023-02-17T11:00:58;37.53;;;20.50;;
71513;SDS011;59335;46.652;21.272;2023-02-17T11:04:10;40.15;;;20.15;;
71513;SDS011;59335;46.652;21.272;2023-02-17T11:07:17;33.92;;;20.83;;
71513;SDS011;59335;46.652;21.272;2023-02-17T11:13:35;32.92;;;20.17;;
71513;SDS011;59335;46.652;21.272;2023-02-17T11:16:46;33.53;;;19.20;;
71513;SDS011;59335;46.652;21.272;2023-02-17T11:20:01;34.78;;;19.75;;
71513;SDS011;59335;46.652;21.272;2023-02-17T11:26:23;35.85;;;19.30;;
71513;SDS011;59335;46.652;21.272;2023-02-17T11:29:28;35.45;;;20.95;;
71513;SDS011;59335;46.652;21.272;2023-02-17T11:32:34;34.00;;;20.50;;
71513;SDS011;59335;46.652;21.272;2023-02-17T11:35:53;29.20;;;19.40;;
71513;SDS011;59335;46.652;21.272;2023-02-17T11:39:00;31.48;;;19.45;;
71513;SDS011;59335;46.652;21.272;2023-02-17T11:42:27;34.45;;;20.38;;
71513;SDS011;59335;46.652;21.272;2023-02-17T11:45:38;34.42;;;20.23;;
71513;SDS011;59335;46.652;21.272;2023-02-17T12:03:05;36.85;;;20.23;;
71513;SDS011;59335;46.652;21.272;2023-02-17T12:20:04;29.42;;;19.25;;
71513;SDS011;59335;46.652;21.272;2023-02-17T12:30:07;32.00;;;18.85;;
71513;SDS011;59335;46.652;21.272;2023-02-17T12:36:51;35.00;;;19.95;;
71513;SDS011;59335;46.652;21.272;2023-02-17T12:40:05;32.80;;;19.00;;
71513;SDS011;59335;46.652;21.272;2023-02-17T12:43:23;35.03;;;19.13;;
71513;SDS011;59335;46.652;21.272;2023-02-17T12:46:39;31.48;;;19.83;;
71513;SDS011;59335;46.652;21.272;2023-02-17T12:49:47;32.58;;;18.38;;
71513;SDS011;59335;46.652;21.272;2023-02-17T12:52:54;31.90;;;19.23;;
71513;SDS011;59335;46.652;21.272;2023-02-17T12:56:02;34.23;;;19.73;;
71513;SDS011;59335;46.652;21.272;2023-02-17T12:59:17;31.17;;;19.00;;
71513;SDS011;59335;46.652;21.272;2023-02-17T13:02:22;31.23;;;19.55;;
71513;SDS011;59335;46.652;21.272;2023-02-17T13:08:49;34.25;;;20.08;;
71513;SDS011;59335;46.652;21.272;2023-02-17T13:15:24;31.75;;;19.00;;
71513;SDS011;59335;46.652;21.272;2023-02-17T13:18:31;31.85;;;19.77;;
71513;SDS011;59335;46.652;21.272;2023-02-17T13:21:35;30.30;;;19.40;;
71513;SDS011;59335;46.652;21.272;2023-02-17T13:24:38;31.65;;;19.90;;
71513;SDS011;59335;46.652;21.272;2023-02-17T13:27:56;31.17;;;18.70;;
71513;SDS011;59335;46.652;21.272;2023-02-17T13:31:08;32.70;;;19.42;;
71513;SDS011;59335;46.652;21.272;2023-02-17T13:34:40;33.88;;;19.67;;
71513;SDS011;59335;46.652;21.272;2023-02-17T13:37:45;27.83;;;18.05;;
71513;SDS011;59335;46.652;21.272;2023-02-17T13:40:50;29.75;;;18.73;;
71513;SDS011;59335;46.652;21.272;2023-02-17T13:43:56;26.60;;;18.90;;
71513;SDS011;59335;46.652;21.272;2023-02-17T13:47:01;31.70;;;19.58;;
71513;SDS011;59335;46.652;21.272;2023-02-17T13:53:48;30.52;;;19.33;;
71513;SDS011;59335;46.652;21.272;2023-02-17T13:56:52;31.08;;;19.35;;
71513;SDS011;59335;46.652;21.272;2023-02-17T14:03:29;28.77;;;18.75;;
71513;SDS011;59335;46.652;21.272;2023-02-17T14:06:37;28.52;;;19.33;;
71513;SDS011;59335;46.652;21.272;2023-02-17T14:09:50;32.45;;;18.58;;
71513;SDS011;59335;46.652;21.272;2023-02-17T14:12:57;31.77;;;19.23;;
71513;SDS011;59335;46.652;21.272;2023-02-17T14:16:02;32.20;;;18.47;;
71513;SDS011;59335;46.652;21.272;2023-02-17T14:22:28;32.33;;;18.98;;
71513;SDS011;59335;46.652;21.272;2023-02-17T14:25:34;29.98;;;18.30;;
71513;SDS011;59335;46.652;21.272;2023-02-17T14:28:38;29.23;;;18.25;;
71513;SDS011;59335;46.652;21.272;2023-02-17T14:31:43;28.57;;;18.17;;
71513;SDS011;59335;46.652;21.272;2023-02-17T14:34:46;32.50;;;19.23;;
71513;SDS011;59335;46.652;21.272;2023-02-17T14:37:49;32.33;;;18.75;;
71513;SDS011;59335;46.652;21.272;2023-02-17T14:40:52;32.72;;;18.80;;
71513;SDS011;59335;46.652;21.272;2023-02-17T14:43:57;32.28;;;18.80;;
71513;SDS011;59335;46.652;21.272;2023-02-17T14:47:01;31.97;;;19.07;;
71513;SDS011;59335;46.652;21.272;2023-02-17T14:50:07;37.78;;;22.35;;
71513;SDS011;59335;46.652;21.272;2023-02-17T14:53:24;44.03;;;24.10;;
71513;SDS011;59335;46.652;21.272;2023-02-17T14:56:34;53.90;;;27.25;;
71513;SDS011;59335;46.652;21.272;2023-02-17T14:59:42;60.28;;;27.80;;
71513;SDS011;59335;46.652;21.272;2023-02-17T15:02:45;58.17;;;28.13;;
71513;SDS011;59335;46.652;21.272;2023-02-17T15:05:49;49.40;;;24.92;;
71513;SDS011;59335;46.652;21.272;2023-02-17T15:08:52;50.17;;;24.67;;
71513;SDS011;59335;46.652;21.272;2023-02-17T15:11:56;52.15;;;24.15;;
71513;SDS011;59335;46.652;21.272;2023-02-17T15:14:59;59.03;;;25.25;;
71513;SDS011;59335;46.652;21.272;2023-02-17T15:18:02;42.77;;;22.27;;
71513;SDS011;59335;46.652;21.272;2023-02-17T15:21:13;46.58;;;22.95;;
71513;SDS011;59335;46.652;21.272;2023-02-17T15:24:25;44.00;;;23.02;;
71513;SDS011;59335;46.652;21.272;2023-02-17T15:27:34;45.55;;;22.73;;
71513;SDS011;59335;46.652;21.272;2023-02-17T15:30:37;46.92;;;23.15;;
71513;SDS011;59335;46.652;21.272;2023-02-17T15:33:42;45.90;;;21.33;;
71513;SDS011;59335;46.652;21.272;2023-02-17T15:36:46;47.08;;;23.05;;
71513;SDS011;59335;46.652;21.272;2023-02-17T15:39:50;42.33;;;23.58;;
71513;SDS011;59335;46.652;21.272;2023-02-17T15:42:56;46.55;;;21.83;;
71513;SDS011;59335;46.652;21.272;2023-02-17T15:46:14;40.10;;;21.35;;
71513;SDS011;59335;46.652;21.272;2023-02-17T15:49:20;49.83;;;21.97;;
71513;SDS011;59335;46.652;21.272;2023-02-17T15:52:25;41.55;;;21.42;;
71513;SDS011;59335;46.652;21.272;2023-02-17T15:55:28;43.17;;;22.08;;
71513;SDS011;59335;46.652;21.272;2023-02-17T15:58:31;38.90;;;20.13;;
71513;SDS011;59335;46.652;21.272;2023-02-17T16:01:34;38.80;;;21.15;;
71513;SDS011;59335;46.652;21.272;2023-02-17T16:04:38;42.90;;;21.30;;
71513;SDS011;59335;46.652;21.272;2023-02-17T16:07:45;43.15;;;21.08;;
71513;SDS011;59335;46.652;21.272;2023-02-17T16:10:48;38.60;;;21.25;;
71513;SDS011;59335;46.652;21.272;2023-02-17T16:13:53;33.97;;;19.23;;
71513;SDS011;59335;46.652;21.272;2023-02-17T16:16:57;30.45;;;18.92;;
71513;SDS011;59335;46.652;21.272;2023-02-17T16:20:00;35.30;;;20.53;;
71513;SDS011;59335;46.652;21.272;2023-02-17T16:23:03;38.28;;;19.90;;
71513;SDS011;59335;46.652;21.272;2023-02-17T16:26:11;35.42;;;20.15;;
71513;SDS011;59335;46.652;21.272;2023-02-17T16:29:30;39.22;;;20.15;;
71513;SDS011;59335;46.652;21.272;2023-02-17T16:32:34;37.45;;;20.15;;
71513;SDS011;59335;46.652;21.272;2023-02-17T16:35:39;35.10;;;19.87;;
71513;SDS011;59335;46.652;21.272;2023-02-17T16:38:49;42.80;;;20.70;;
71513;SDS011;59335;46.652;21.272;2023-02-17T16:41:53;34.55;;;19.33;;
71513;SDS011;59335;46.652;21.272;2023-02-17T16:44:56;34.00;;;19.27;;
71513;SDS011;59335;46.652;21.272;2023-02-17T16:48:00;41.30;;;20.25;;
71513;SDS011;59335;46.652;21.272;2023-02-17T16:51:04;33.73;;;20.07;;
71513;SDS011;59335;46.652;21.272;2023-02-17T16:54:10;34.10;;;19.40;;
71513;SDS011;59335;46.652;21.272;2023-02-17T16:57:17;36.97;;;19.35;;
71513;SDS011;59335;46.652;21.272;2023-02-17T17:00:23;36.55;;;20.73;;
71513;SDS011;59335;46.652;21.272;2023-02-17T17:03:29;34.20;;;19.38;;
71513;SDS011;59335;46.652;21.272;2023-02-17T17:06:34;36.83;;;19.47;;
71513;SDS011;59335;46.652;21.272;2023-02-17T17:09:39;35.45;;;18.10;;
71513;SDS011;59335;46.652;21.272;2023-02-17T17:12:50;30.42;;;18.25;;
71513;SDS011;59335;46.652;21.272;2023-02-17T17:15:54;31.02;;;18.35;;
71513;SDS011;59335;46.652;21.272;2023-02-17T17:18:59;34.15;;;18.85;;
71513;SDS011;59335;46.652;21.272;2023-02-17T17:22:05;32.43;;;18.47;;
71513;SDS011;59335;46.652;21.272;2023-02-17T17:25:09;37.08;;;19.27;;
71513;SDS011;59335;46.652;21.272;2023-02-17T17:28:14;33.13;;;19.00;;
71513;SDS011;59335;46.652;21.272;2023-02-17T17:31:20;35.35;;;18.75;;
71513;SDS011;59335;46.652;21.272;2023-02-17T17:34:24;30.17;;;18.33;;
71513;SDS011;59335;46.652;21.272;2023-02-17T17:37:28;32.27;;;19.53;;
71513;SDS011;59335;46.652;21.272;2023-02-17T17:40:35;34.35;;;18.63;;
71513;SDS011;59335;46.652;21.272;2023-02-17T17:43:51;33.03;;;19.17;;
71513;SDS011;59335;46.652;21.272;2023-02-17T17:46:56;32.10;;;17.85;;
71513;SDS011;59335;46.652;21.272;2023-02-17T17:50:00;34.25;;;19.10;;
71513;SDS011;59335;46.652;21.272;2023-02-17T17:53:05;33.37;;;18.50;;
71513;SDS011;59335;46.652;21.272;2023-02-17T17:56:12;32.50;;;18.55;;
71513;SDS011;59335;46.652;21.272;2023-02-17T17:59:18;29.42;;;17.92;;
71513;SDS011;59335;46.652;21.272;2023-02-17T18:02:22;28.85;;;17.85;;
71513;SDS011;59335;46.652;21.272;2023-02-17T18:05:25;28.05;;;17.65;;
71513;SDS011;59335;46.652;21.272;2023-02-17T18:08:33;29.57;;;17.90;;
71513;SDS011;59335;46.652;21.272;2023-02-17T18:11:38;27.65;;;17.80;;
71513;SDS011;59335;46.652;21.272;2023-02-17T18:14:43;29.42;;;18.15;;
71513;SDS011;59335;46.652;21.272;2023-02-17T18:17:50;28.85;;;17.77;;
71513;SDS011;59335;46.652;21.272;2023-02-17T18:20:55;28.58;;;17.75;;
71513;SDS011;59335;46.652;21.272;2023-02-17T18:24:00;27.83;;;17.47;;
71513;SDS011;59335;46.652;21.272;2023-02-17T18:27:07;30.10;;;17.17;;
71513;SDS011;59335;46.652;21.272;2023-02-17T18:30:16;29.67;;;17.58;;
71513;SDS011;59335;46.652;21.272;2023-02-17T18:33:23;26.25;;;17.83;;
71513;SDS011;59335;46.652;21.272;2023-02-17T18:36:29;31.70;;;17.27;;
71513;SDS011;59335;46.652;21.272;2023-02-17T18:39:33;28.83;;;17.20;;
71513;SDS011;59335;46.652;21.272;2023-02-17T18:42:39;29.73;;;16.52;;
71513;SDS011;59335;46.652;21.272;2023-02-17T18:45:46;27.48;;;17.33;;
71513;SDS011;59335;46.652;21.272;2023-02-17T18:48:54;25.83;;;16.90;;
71513;SDS011;59335;46.652;21.272;2023-02-17T18:51:58;24.23;;;16.20;;
71513;SDS011;59335;46.652;21.272;2023-02-17T18:55:03;26.67;;;16.50;;
71513;SDS011;59335;46.652;21.272;2023-02-17T18:58:08;24.83;;;16.10;;
71513;SDS011;59335;46.652;21.272;2023-02-17T19:01:15;23.65;;;16.05;;
71513;SDS011;59335;46.652;21.272;2023-02-17T19:04:20;26.48;;;15.80;;
71513;SDS011;59335;46.652;21.272;2023-02-17T19:07:24;30.05;;;16.52;;
71513;SDS011;59335;46.652;21.272;2023-02-17T19:10:29;28.23;;;15.77;;
71513;SDS011;59335;46.652;21.272;2023-02-17T19:13:33;27.02;;;15.38;;
71513;SDS011;59335;46.652;21.272;2023-02-17T19:16:38;23.88;;;15.82;;
71513;SDS011;59335;46.652;21.272;2023-02-17T19:19:43;24.52;;;15.98;;
71513;SDS011;59335;46.652;21.272;2023-02-17T19:22:49;23.15;;;15.75;;
71513;SDS011;59335;46.652;21.272;2023-02-17T19:25:53;24.83;;;15.73;;
71513;SDS011;59335;46.652;21.272;2023-02-17T19:29:00;27.10;;;15.98;;
71513;SDS011;59335;46.652;21.272;2023-02-17T19:32:04;26.55;;;15.88;;
71513;SDS011;59335;46.652;21.272;2023-02-17T19:35:09;23.42;;;15.43;;
71513;SDS011;59335;46.652;21.272;2023-02-17T19:38:13;23.25;;;15.20;;
71513;SDS011;59335;46.652;21.272;2023-02-17T19:41:18;25.70;;;15.60;;
71513;SDS011;59335;46.652;21.272;2023-02-17T19:44:22;24.85;;;14.75;;
71513;SDS011;59335;46.652;21.272;2023-02-17T19:47:26;25.65;;;15.18;;
71513;SDS011;59335;46.652;21.272;2023-02-17T19:50:35;22.35;;;14.57;;
71513;SDS011;59335;46.652;21.272;2023-02-17T19:53:41;24.20;;;15.10;;
71513;SDS011;59335;46.652;21.272;2023-02-17T19:56:47;21.13;;;14.10;;